createdAt,value
2022-11-20T00:02:01.603Z,7.50
2022-11-20T00:07:03.405Z,7.60
2022-11-20T00:12:05.488Z,7.30
2022-11-20T00:17:07.244Z,7.30
2022-11-20T00:22:09.026Z,7.40
2022-11-20T00:27:10.837Z,7.50
2022-11-20T00:32:12.624Z,7.50
2022-11-20T00:37:14.428Z,7.40
2022-11-20T00:42:16.174Z,7.60
2022-11-20T00:52:20.235Z,7.40
2022-11-20T00:57:22.042Z,7.40
2022-11-20T01:02:24.143Z,7.30
2022-11-20T01:07:25.933Z,7.30
2022-11-20T01:12:27.665Z,7.30
2022-11-20T01:17:29.393Z,7.30
2022-11-20T01:22:31.124Z,7.10
2022-11-20T01:27:32.857Z,7.20
2022-11-20T01:32:34.597Z,7.40
2022-11-20T01:37:36.645Z,7.10
2022-11-20T01:42:56.996Z,7.40
2022-11-20T01:47:58.766Z,7.50
2022-11-20T01:53:07.533Z,7.60
2022-11-20T01:58:09.852Z,7.60
2022-11-20T02:03:15.011Z,7.50
2022-11-20T02:08:17.064Z,7.60
2022-11-20T02:13:37.761Z,7.50
2022-11-20T02:18:40.460Z,7.60
2022-11-20T02:23:54.494Z,7.50
2022-11-20T02:28:56.611Z,7.60
2022-11-20T02:33:59.050Z,7.70
2022-11-20T02:39:00.837Z,7.70
2022-11-20T02:44:03.079Z,7.70
2022-11-20T02:49:05.973Z,7.70
2022-11-20T02:54:07.643Z,7.60
2022-11-20T03:04:12.094Z,7.70
2022-11-20T03:09:14.041Z,7.80
2022-11-20T03:14:15.794Z,7.80
2022-11-20T03:19:17.672Z,7.70
2022-11-20T03:24:19.416Z,7.70
2022-11-20T03:29:21.430Z,7.70
2022-11-20T03:34:24.173Z,7.60
2022-11-20T03:39:25.911Z,7.80
2022-11-20T03:44:27.636Z,7.70
2022-11-20T03:49:29.338Z,7.80
2022-11-20T03:54:31.255Z,7.90
2022-11-20T03:59:32.932Z,7.70
2022-11-20T04:04:34.655Z,7.70
2022-11-20T04:09:36.395Z,7.80
2022-11-20T04:14:38.220Z,7.80
2022-11-20T04:19:40.003Z,7.60
2022-11-20T04:24:42.176Z,7.70
2022-11-20T04:29:43.940Z,7.80
2022-11-20T04:34:45.714Z,7.90
2022-11-20T04:39:47.466Z,7.80
2022-11-20T04:44:49.805Z,7.90
2022-11-20T04:49:51.656Z,7.80
2022-11-20T04:54:54.335Z,8.00
2022-11-20T04:59:56.171Z,7.60
2022-11-20T05:04:58.121Z,7.70
2022-11-20T05:09:59.866Z,7.70
2022-11-20T05:15:01.593Z,8.40
2022-11-20T05:20:03.827Z,7.50
2022-11-20T05:25:05.942Z,7.60
2022-11-20T05:30:08.496Z,7.60
2022-11-20T05:35:10.209Z,7.50
2022-11-20T05:40:12.741Z,7.50
2022-11-20T05:45:14.558Z,7.50
2022-11-20T05:50:16.306Z,7.50
2022-11-20T05:55:18.066Z,7.50
2022-11-20T06:00:19.861Z,7.30
2022-11-20T06:05:21.664Z,7.60
2022-11-20T06:10:23.409Z,7.60
2022-11-20T06:15:25.290Z,7.50
2022-11-20T06:20:26.972Z,7.40
2022-11-20T06:25:28.641Z,7.30
2022-11-20T06:30:30.309Z,7.40
2022-11-20T06:35:32.021Z,7.60
2022-11-20T06:40:33.740Z,7.60
2022-11-20T06:45:36.262Z,7.50
2022-11-20T06:50:38.940Z,7.30
2022-11-20T06:55:44.871Z,7.40
2022-11-20T07:00:46.769Z,7.50
2022-11-20T07:05:48.558Z,7.40
2022-11-20T07:10:50.283Z,7.60
2022-11-20T07:15:52.052Z,7.50
2022-11-20T07:20:54.129Z,7.60
2022-11-20T07:25:55.865Z,7.60
2022-11-20T07:30:57.606Z,7.60
2022-11-20T07:36:02.421Z,7.50
2022-11-20T07:41:04.232Z,7.70
2022-11-20T07:46:06.016Z,7.70
2022-11-20T07:51:07.912Z,9.70
2022-11-20T07:56:09.644Z,7.80
2022-11-20T08:01:11.736Z,7.90
2022-11-20T08:06:13.539Z,8.00
2022-11-20T08:11:33.745Z,7.70
2022-11-20T08:16:35.615Z,7.80
2022-11-20T08:21:38.476Z,7.90
2022-11-20T08:26:42.008Z,7.80
2022-11-20T08:31:43.943Z,8.00
2022-11-20T08:36:45.775Z,8.00
2022-11-20T08:41:47.482Z,8.10
2022-11-20T08:46:49.582Z,8.30
2022-11-20T08:51:54.607Z,8.10
2022-11-20T08:56:56.377Z,8.10
2022-11-20T09:01:58.301Z,8.40
2022-11-20T09:07:01.372Z,7.90
2022-11-20T09:12:03.246Z,7.80
2022-11-20T09:17:05.035Z,7.80
2022-11-20T09:22:06.783Z,8.10
2022-11-20T09:27:08.779Z,8.10
2022-11-20T09:32:10.509Z,8.10
2022-11-20T09:37:12.265Z,7.80
2022-11-20T09:47:34.919Z,7.10
2022-11-20T09:53:01.322Z,7.30
2022-11-20T09:58:06.739Z,7.60
2022-11-20T10:03:20.546Z,7.30
2022-11-20T10:08:48.553Z,7.60
2022-11-20T10:14:08.280Z,8.00
2022-11-20T10:19:28.781Z,8.00
2022-11-20T10:24:52.981Z,8.10
2022-11-20T10:30:04.278Z,8.30
2022-11-20T10:35:15.337Z,8.30
2022-11-20T10:40:38.869Z,8.20
2022-11-20T10:45:59.467Z,8.30
2022-11-20T10:51:28.090Z,8.30
2022-11-20T10:56:52.425Z,10.90
2022-11-20T11:01:54.250Z,8.40
2022-11-20T11:07:17.795Z,8.30
2022-11-20T11:12:25.950Z,8.50
2022-11-20T11:17:31.907Z,8.60
2022-11-20T11:22:36.074Z,8.60
2022-11-20T11:27:50.352Z,8.40
2022-11-20T11:33:02.807Z,8.40
2022-11-20T11:38:13.635Z,8.50
2022-11-20T11:43:41.069Z,8.20
2022-11-20T11:48:46.959Z,8.20
2022-11-20T11:53:51.827Z,8.00
2022-11-20T11:58:56.206Z,7.80
2022-11-20T12:04:31.810Z,7.90
2022-11-20T12:09:42.293Z,8.20
2022-11-20T12:14:48.423Z,8.30
2022-11-20T12:19:50.198Z,8.20
2022-11-20T12:24:52.101Z,8.30
2022-11-20T12:30:08.279Z,8.60
2022-11-20T12:35:32.101Z,8.70
2022-11-20T12:41:45.943Z,8.50
2022-11-20T12:46:59.837Z,8.50
2022-11-20T12:52:07.485Z,9.00
2022-11-20T12:57:30.790Z,8.70
2022-11-20T13:02:59.968Z,8.60
2022-11-20T13:08:03.205Z,8.80
2022-11-20T13:13:36.982Z,10.40
2022-11-20T13:18:43.593Z,10.10
2022-11-20T13:23:45.649Z,10.00
2022-11-20T13:28:49.330Z,8.60
2022-11-20T13:33:53.958Z,9.00
2022-11-20T13:38:57.316Z,9.00
2022-11-20T13:44:27.363Z,9.20
2022-11-20T13:49:44.822Z,9.00
2022-11-20T13:55:07.907Z,9.20
2022-11-20T14:00:24.531Z,9.10
2022-11-20T14:05:26.384Z,9.50
2022-11-20T14:10:32.336Z,9.10
2022-11-20T14:15:39.235Z,9.20
2022-11-20T14:20:44.443Z,11.90
2022-11-20T14:25:46.418Z,11.70
2022-11-20T14:30:49.984Z,9.80
2022-11-20T14:36:01.037Z,9.80
2022-11-20T14:41:30.097Z,9.50
2022-11-20T14:46:34.032Z,9.30
2022-11-20T14:51:43.759Z,9.20
2022-11-20T14:57:00.116Z,9.20
2022-11-20T15:02:06.660Z,9.20
2022-11-20T15:07:08.543Z,9.00
2022-11-20T15:12:18.574Z,9.00
2022-11-20T15:17:20.374Z,8.70
2022-11-20T15:22:22.281Z,8.90
2022-11-20T15:27:24.295Z,8.60
2022-11-20T15:32:25.985Z,8.40
2022-11-20T15:37:30.037Z,8.30
2022-11-20T15:42:32.008Z,8.80
2022-11-20T15:47:36.082Z,8.00
2022-11-20T15:52:42.051Z,8.00
2022-11-20T15:57:43.913Z,8.00
2022-11-20T16:02:45.659Z,7.60
2022-11-20T16:07:47.366Z,7.60
2022-11-20T16:13:07.689Z,7.70
2022-11-20T16:18:12.762Z,7.70
2022-11-20T16:23:14.829Z,7.70
2022-11-20T16:28:19.175Z,7.40
2022-11-20T16:33:21.270Z,7.70
2022-11-20T16:38:23.029Z,7.50
2022-11-20T16:43:24.835Z,7.40
2022-11-20T16:48:26.730Z,7.40
2022-11-20T16:53:29.674Z,7.40
2022-11-20T16:58:31.400Z,7.40
2022-11-20T17:03:33.125Z,7.70
2022-11-20T17:08:35.232Z,8.90
2022-11-20T17:13:39.925Z,7.40
2022-11-20T17:18:42.172Z,7.50
2022-11-20T17:23:45.193Z,7.30
2022-11-20T17:28:52.904Z,7.60
2022-11-20T17:33:54.807Z,7.60
2022-11-20T17:38:56.923Z,7.70
2022-11-20T17:44:01.119Z,7.70
2022-11-20T17:49:03.962Z,9.10
2022-11-20T17:54:09.284Z,7.60
2022-11-20T17:59:12.920Z,8.50
2022-11-20T18:04:14.835Z,8.70
2022-11-20T18:09:16.798Z,8.80
2022-11-20T18:14:34.747Z,7.80
2022-11-20T18:19:55.605Z,7.60
2022-11-20T18:25:07.229Z,7.60
2022-11-20T18:30:09.716Z,7.70
2022-11-20T18:35:12.368Z,7.80
2022-11-20T18:40:14.209Z,7.70
2022-11-20T18:45:15.977Z,7.70
2022-11-20T18:50:19.122Z,7.70
2022-11-20T18:55:24.349Z,7.70
2022-11-20T19:00:26.188Z,7.70
2022-11-20T19:05:28.435Z,7.60
2022-11-20T19:10:30.162Z,7.60
2022-11-20T19:15:33.911Z,7.60
2022-11-20T19:20:35.900Z,7.70
2022-11-20T19:25:38.492Z,7.50
2022-11-20T19:30:41.694Z,7.40
2022-11-20T19:35:43.435Z,7.10
2022-11-20T19:40:45.118Z,6.90
2022-11-20T19:45:46.923Z,7.00
2022-11-20T19:50:49.091Z,6.90
2022-11-20T19:55:58.387Z,7.00
2022-11-20T20:01:15.686Z,7.20
2022-11-20T20:06:23.692Z,6.80
2022-11-20T20:11:27.054Z,7.10
2022-11-20T20:21:32.574Z,7.20
2022-11-20T20:26:34.460Z,7.20
2022-11-20T20:31:36.359Z,7.20
2022-11-20T20:36:38.041Z,7.20
2022-11-20T20:41:39.788Z,8.00
2022-11-20T20:46:41.799Z,7.10
2022-11-20T20:51:43.613Z,6.90
2022-11-20T20:56:45.355Z,7.00
2022-11-20T21:01:47.211Z,7.10
2022-11-20T21:06:48.965Z,6.90
2022-11-20T21:11:51.148Z,6.90
2022-11-20T21:27:07.100Z,7.20
2022-11-20T21:57:20.954Z,6.60
2022-11-20T22:07:25.060Z,6.60
2022-11-20T22:12:27.005Z,6.60
2022-11-20T22:27:51.985Z,6.80
2022-11-20T22:32:56.271Z,6.90
2022-11-20T22:48:02.214Z,6.80
2022-11-20T22:53:04.002Z,6.80
2022-11-20T22:58:05.722Z,6.80
2022-11-20T23:03:07.509Z,7.00
2022-11-20T23:08:09.218Z,6.80
2022-11-20T23:13:10.960Z,6.70
2022-11-20T23:18:12.689Z,6.90
2022-11-20T23:28:16.649Z,6.70
2022-11-20T23:33:18.360Z,6.60
2022-11-20T23:38:20.146Z,6.70
2022-11-20T23:43:22.940Z,6.70
2022-11-20T23:48:28.780Z,6.60
2022-11-20T23:53:31.213Z,6.80
2022-11-20T23:58:37.350Z,6.80
